createdAt,value
2019-03-18T00:02:32.452Z,4.37
2019-03-18T00:05:13.891Z,4.78
2019-03-18T00:07:55.428Z,5.37
2019-03-18T00:10:37.080Z,4.67
2019-03-18T00:13:19.119Z,5.45
2019-03-18T00:16:00.445Z,5.50
2019-03-18T00:18:41.949Z,4.20
2019-03-18T00:21:22.656Z,4.75
2019-03-18T00:24:04.023Z,5.30
2019-03-18T00:26:45.311Z,4.85
2019-03-18T00:29:27.044Z,4.50
2019-03-18T00:32:07.852Z,4.55
2019-03-18T00:34:47.743Z,4.25
2019-03-18T00:43:26.579Z,5.55
2019-03-18T00:46:07.674Z,4.80
2019-03-18T00:48:50.743Z,4.00
2019-03-18T00:51:31.914Z,4.85
2019-03-18T00:54:13.685Z,5.92
2019-03-18T00:56:55.015Z,4.65
2019-03-18T00:59:36.770Z,4.80
2019-03-18T01:02:17.795Z,4.90
2019-03-18T01:04:58.840Z,4.05
2019-03-18T01:07:39.600Z,4.95
2019-03-18T01:10:20.508Z,4.55
2019-03-18T01:13:01.662Z,3.40
2019-03-18T01:15:43.526Z,3.85
2019-03-18T01:18:24.713Z,4.22
2019-03-18T01:21:06.278Z,3.05
2019-03-18T01:23:47.708Z,3.58
2019-03-18T01:26:28.965Z,4.33
2019-03-18T01:29:10.009Z,3.70
2019-03-18T01:31:51.077Z,3.67
2019-03-18T01:34:32.507Z,3.87
2019-03-18T01:37:13.265Z,3.37
2019-03-18T01:39:54.305Z,4.03
2019-03-18T01:42:35.778Z,3.55
2019-03-18T01:45:17.232Z,3.80
2019-03-18T01:47:59.104Z,3.90
2019-03-18T01:50:40.544Z,3.70
2019-03-18T01:53:20.216Z,3.58
2019-03-18T01:56:08.866Z,4.03
2019-03-18T02:01:53.026Z,4.17
2019-03-18T02:04:42.153Z,3.77
2019-03-18T02:07:30.744Z,4.45
2019-03-18T02:13:28.418Z,3.60
2019-03-18T02:16:17.455Z,3.58
2019-03-18T02:19:06.069Z,4.15
2019-03-18T02:21:54.638Z,3.72
2019-03-18T02:24:43.356Z,4.50
2019-03-18T02:27:32.168Z,4.37
2019-03-18T02:36:15.132Z,4.15
2019-03-18T02:39:24.109Z,3.62
2019-03-18T02:42:13.133Z,4.60
2019-03-18T02:44:54.075Z,4.00
2019-03-18T02:47:34.888Z,4.12
2019-03-18T02:50:16.161Z,3.87
2019-03-18T02:52:57.855Z,4.10
2019-03-18T02:55:39.360Z,4.10
2019-03-18T02:58:20.847Z,4.33
2019-03-18T03:01:02.356Z,4.12
2019-03-18T03:03:42.607Z,3.75
2019-03-18T03:06:31.457Z,3.77
2019-03-18T03:09:20.155Z,4.15
2019-03-18T03:12:08.765Z,4.22
2019-03-18T03:17:51.016Z,3.85
2019-03-18T03:20:54.281Z,3.77
2019-03-18T03:23:42.084Z,3.70
2019-03-18T03:26:20.775Z,3.80
2019-03-18T03:29:09.502Z,3.92
2019-03-18T03:31:58.429Z,3.20
2019-03-18T03:37:56.426Z,3.20
2019-03-18T03:46:46.300Z,3.98
2019-03-18T03:49:27.625Z,4.28
2019-03-18T03:52:09.068Z,4.30
2019-03-18T03:54:50.615Z,4.15
2019-03-18T03:57:32.117Z,5.00
2019-03-18T04:00:13.737Z,5.80
2019-03-18T04:06:14.455Z,6.65
2019-03-18T04:08:56.469Z,5.85
2019-03-18T04:11:37.860Z,5.47
2019-03-18T04:14:18.733Z,6.20
2019-03-18T04:17:02.496Z,7.00
2019-03-18T04:19:43.093Z,5.85
2019-03-18T04:22:24.484Z,9.38
2019-03-18T04:25:05.892Z,7.17
2019-03-18T04:27:46.757Z,6.60
2019-03-18T04:30:28.255Z,7.30
2019-03-18T04:33:10.053Z,7.97
2019-03-18T04:35:51.260Z,7.65
2019-03-18T04:38:32.867Z,7.47
2019-03-18T04:41:14.509Z,7.87
2019-03-18T04:43:56.391Z,7.03
2019-03-18T04:46:37.289Z,7.67
2019-03-18T04:49:18.689Z,7.70
2019-03-18T04:51:59.867Z,8.73
2019-03-18T04:54:41.388Z,6.97
2019-03-18T04:57:22.760Z,7.85
2019-03-18T05:00:04.454Z,7.87
2019-03-18T05:02:45.585Z,9.53
2019-03-18T05:05:27.332Z,8.53
2019-03-18T05:08:08.536Z,9.48
2019-03-18T05:10:50.147Z,8.80
2019-03-18T05:13:31.617Z,8.83
2019-03-18T05:16:12.729Z,10.75
2019-03-18T05:18:54.145Z,10.20
2019-03-18T05:21:35.335Z,9.58
2019-03-18T05:24:16.366Z,8.90
2019-03-18T05:26:57.886Z,10.20
2019-03-18T05:29:38.722Z,9.33
2019-03-18T05:32:19.732Z,10.20
2019-03-18T05:34:59.403Z,11.25
2019-03-18T05:37:48.016Z,10.60
2019-03-18T05:40:36.763Z,11.75
2019-03-18T05:46:17.518Z,12.47
2019-03-18T05:48:58.653Z,13.22
2019-03-18T05:51:39.953Z,13.48
2019-03-18T05:54:21.498Z,13.40
2019-03-18T05:57:02.406Z,12.30
2019-03-18T05:59:44.238Z,12.50
2019-03-18T06:02:25.460Z,13.18
2019-03-18T06:05:07.061Z,12.63
2019-03-18T06:07:48.672Z,12.93
2019-03-18T06:10:30.233Z,16.27
2019-03-18T06:13:11.751Z,14.50
2019-03-18T06:15:53.269Z,13.45
2019-03-18T06:18:34.456Z,15.03
2019-03-18T06:21:16.001Z,13.45
2019-03-18T06:23:57.632Z,13.53
2019-03-18T06:26:39.073Z,14.73
2019-03-18T06:29:19.819Z,14.18
2019-03-18T06:32:01.340Z,15.53
2019-03-18T06:34:43.114Z,14.60
2019-03-18T06:37:24.009Z,12.55
2019-03-18T06:40:05.630Z,15.38
2019-03-18T06:42:47.006Z,13.70
2019-03-18T06:45:28.293Z,15.70
2019-03-18T06:48:09.510Z,14.07
2019-03-18T06:50:50.275Z,14.58
2019-03-18T06:53:31.871Z,15.72
2019-03-18T06:56:12.693Z,15.65
2019-03-18T06:58:54.245Z,14.83
2019-03-18T07:01:35.326Z,14.87
2019-03-18T07:04:16.833Z,15.43
2019-03-18T07:06:58.177Z,16.12
2019-03-18T07:09:37.925Z,15.28
2019-03-18T07:15:25.411Z,14.75
2019-03-18T07:18:27.951Z,14.28
2019-03-18T07:21:04.339Z,14.53
2019-03-18T07:29:57.258Z,17.95
2019-03-18T07:35:45.375Z,16.20
2019-03-18T07:47:15.866Z,14.80
2019-03-18T07:49:56.971Z,15.60
2019-03-18T07:52:38.620Z,12.93
2019-03-18T07:55:18.360Z,13.83
2019-03-18T08:01:16.484Z,13.43
2019-03-18T08:04:05.080Z,14.13
2019-03-18T08:06:53.743Z,12.28
2019-03-18T08:09:42.628Z,11.78
2019-03-18T08:12:31.674Z,11.30
2019-03-18T08:15:34.341Z,13.08
2019-03-18T08:18:10.876Z,11.85
2019-03-18T08:21:13.723Z,11.18
2019-03-18T08:32:35.852Z,11.90
2019-03-18T08:38:33.720Z,12.82
2019-03-18T08:41:22.381Z,11.93
2019-03-18T08:44:25.981Z,10.45
2019-03-18T08:46:54.219Z,10.38
2019-03-18T08:49:35.671Z,10.88
2019-03-18T08:52:17.124Z,9.75
2019-03-18T08:54:58.927Z,10.15
2019-03-18T08:57:39.905Z,10.65
2019-03-18T09:00:21.590Z,9.20
2019-03-18T09:03:02.649Z,10.40
2019-03-18T09:05:43.481Z,9.75
2019-03-18T09:08:26.490Z,9.73
2019-03-18T09:11:07.621Z,9.05
2019-03-18T09:13:49.004Z,10.65
2019-03-18T09:16:30.331Z,8.63
2019-03-18T09:19:11.804Z,9.55
2019-03-18T09:21:53.398Z,9.43
2019-03-18T09:24:34.844Z,10.38
2019-03-18T09:27:15.662Z,9.45
2019-03-18T09:29:56.509Z,7.40
2019-03-18T09:32:38.188Z,7.85
2019-03-18T09:35:19.802Z,8.70
2019-03-18T09:38:01.287Z,10.35
2019-03-18T09:40:42.762Z,8.68
2019-03-18T09:43:24.325Z,9.68
2019-03-18T09:46:05.260Z,6.92
2019-03-18T09:48:46.747Z,7.42
2019-03-18T09:51:28.225Z,7.90
2019-03-18T09:54:09.863Z,6.35
2019-03-18T10:00:12.155Z,4.78
2019-03-18T10:02:52.499Z,5.12
2019-03-18T10:05:33.960Z,4.95
2019-03-18T10:08:15.256Z,5.00
2019-03-18T10:10:56.794Z,4.45
2019-03-18T10:13:37.880Z,4.95
2019-03-18T10:16:18.698Z,5.42
2019-03-18T10:19:00.074Z,4.95
2019-03-18T10:21:41.665Z,4.75
2019-03-18T10:24:23.093Z,3.85
2019-03-18T10:27:04.684Z,4.58
2019-03-18T10:29:45.734Z,4.50
2019-03-18T10:32:27.256Z,4.75
2019-03-18T10:35:08.696Z,4.60
2019-03-18T10:37:50.178Z,4.30
2019-03-18T10:40:31.804Z,4.95
2019-03-18T10:43:13.185Z,5.10
2019-03-18T10:45:53.988Z,4.00
2019-03-18T10:48:35.089Z,4.12
2019-03-18T10:51:15.844Z,5.35
2019-03-18T10:53:57.521Z,4.37
2019-03-18T10:56:41.128Z,4.95
2019-03-18T10:59:21.531Z,4.65
2019-03-18T11:02:02.247Z,4.45
2019-03-18T11:04:43.455Z,4.25
2019-03-18T11:07:24.925Z,5.47
2019-03-18T11:10:06.552Z,5.55
2019-03-18T11:12:47.872Z,5.47
2019-03-18T11:15:28.704Z,4.42
2019-03-18T11:18:09.323Z,4.62
2019-03-18T11:20:50.537Z,3.92
2019-03-18T11:23:32.139Z,4.28
2019-03-18T11:26:12.169Z,5.00
2019-03-18T11:41:10.812Z,3.50
2019-03-18T11:43:47.778Z,3.65
2019-03-18T11:46:30.194Z,2.60
2019-03-18T11:49:11.577Z,3.77
2019-03-18T11:51:53.407Z,3.27
2019-03-18T11:54:34.930Z,4.03
2019-03-18T11:57:16.700Z,3.25
2019-03-18T11:59:56.377Z,3.15
2019-03-18T12:02:45.575Z,3.60
2019-03-18T12:08:43.334Z,2.45
2019-03-18T12:11:32.126Z,2.95
2019-03-18T12:17:16.185Z,2.83
2019-03-18T12:20:05.145Z,3.47
2019-03-18T12:22:54.063Z,3.37
2019-03-18T12:25:42.663Z,3.08
2019-03-18T12:28:31.884Z,2.85
2019-03-18T12:31:20.469Z,2.77
2019-03-18T12:34:09.147Z,2.20
2019-03-18T12:39:57.354Z,2.80
2019-03-18T12:45:41.648Z,3.20
2019-03-18T12:48:24.851Z,3.42
2019-03-18T12:51:06.121Z,2.72
2019-03-18T12:53:47.712Z,3.52
2019-03-18T12:56:29.189Z,3.20
2019-03-18T12:59:10.927Z,3.00
2019-03-18T13:01:52.036Z,3.80
2019-03-18T13:04:33.979Z,3.47
2019-03-18T13:07:33.793Z,3.08
2019-03-18T13:10:12.601Z,2.75
2019-03-18T13:13:01.433Z,3.37
2019-03-18T13:24:46.184Z,2.45
2019-03-18T13:27:35.042Z,3.65
2019-03-18T13:30:23.746Z,2.33
2019-03-18T13:42:15.643Z,3.05
2019-03-18T13:45:04.441Z,3.20
2019-03-18T13:47:45.773Z,2.10
2019-03-18T13:50:25.504Z,3.10
2019-03-18T13:53:14.208Z,2.87
2019-03-18T14:02:11.284Z,2.52
2019-03-18T14:05:13.917Z,3.87
2019-03-18T14:08:00.127Z,3.92
2019-03-18T14:14:03.903Z,3.15
2019-03-18T14:16:40.344Z,3.25
2019-03-18T14:22:28.168Z,3.75
2019-03-18T14:28:26.240Z,3.60
2019-03-18T14:31:14.882Z,2.80
2019-03-18T14:34:17.450Z,3.80
2019-03-18T14:36:54.527Z,3.17
2019-03-18T14:45:33.851Z,3.05
2019-03-18T14:48:15.110Z,4.20
2019-03-18T14:50:55.834Z,3.00
2019-03-18T14:53:36.829Z,2.90
2019-03-18T14:56:17.692Z,2.87
2019-03-18T14:58:57.351Z,2.45
2019-03-18T15:01:45.935Z,2.08
2019-03-18T15:04:34.659Z,3.00
2019-03-18T15:07:23.379Z,2.50
2019-03-18T15:10:14.000Z,2.95
2019-03-18T15:13:02.951Z,1.72
2019-03-18T15:15:51.645Z,1.77
2019-03-18T15:18:40.486Z,2.65
2019-03-18T15:21:29.111Z,2.42
2019-03-18T15:24:18.043Z,2.83
2019-03-18T15:27:07.007Z,2.35
2019-03-18T15:30:07.797Z,2.62
2019-03-18T15:32:46.837Z,2.45
2019-03-18T15:35:47.164Z,2.77
2019-03-18T15:38:25.887Z,2.20
2019-03-18T15:41:14.461Z,2.20
2019-03-18T15:47:02.116Z,3.50
2019-03-18T15:49:50.820Z,3.15
2019-03-18T16:04:20.955Z,2.60
2019-03-18T16:07:09.681Z,2.47
2019-03-18T16:09:58.343Z,3.77
2019-03-18T16:12:58.663Z,2.35
2019-03-18T16:15:51.318Z,3.22
2019-03-18T16:18:27.640Z,2.87
2019-03-18T16:21:16.632Z,3.12
2019-03-18T16:24:05.652Z,3.22
2019-03-18T16:26:54.345Z,2.67
2019-03-18T16:32:52.172Z,2.98
2019-03-18T16:35:40.895Z,3.05
2019-03-18T16:38:29.471Z,2.25
2019-03-18T16:41:18.122Z,2.42
2019-03-18T16:44:20.795Z,3.47
2019-03-18T16:46:49.529Z,2.22
2019-03-18T16:49:30.832Z,2.45
2019-03-18T16:52:12.530Z,2.27
2019-03-18T16:54:53.961Z,2.58
2019-03-18T16:57:35.564Z,3.17
2019-03-18T17:00:16.936Z,2.10
2019-03-18T17:02:58.532Z,2.30
2019-03-18T17:05:39.819Z,2.35
2019-03-18T17:08:21.139Z,2.62
2019-03-18T17:11:01.312Z,3.37
2019-03-18T17:13:53.432Z,3.75
2019-03-18T17:22:50.138Z,2.75
2019-03-18T17:25:36.446Z,3.77
2019-03-18T17:31:20.272Z,2.80
2019-03-18T17:34:08.952Z,2.70
2019-03-18T17:36:49.843Z,2.40
2019-03-18T17:39:31.714Z,2.72
2019-03-18T17:42:12.867Z,1.65
2019-03-18T17:44:54.459Z,2.05
2019-03-18T17:47:34.463Z,2.25
2019-03-18T17:50:23.091Z,2.02
2019-03-18T17:53:12.298Z,3.10
2019-03-18T17:56:01.032Z,2.70
2019-03-18T18:01:48.365Z,2.40
2019-03-18T18:04:36.955Z,1.92
2019-03-18T18:10:55.566Z,2.60
2019-03-18T18:13:44.495Z,12.07
2019-03-18T18:16:33.249Z,3.05
2019-03-18T18:19:22.322Z,3.37
2019-03-18T18:22:11.006Z,3.22
2019-03-18T18:24:59.687Z,2.98
2019-03-18T18:27:48.193Z,3.27
2019-03-18T18:30:37.104Z,2.65
2019-03-18T18:39:20.578Z,2.80
2019-03-18T18:42:01.860Z,2.72
2019-03-18T18:44:43.372Z,3.70
2019-03-18T18:47:24.995Z,2.65
2019-03-18T18:50:06.079Z,2.87
2019-03-18T18:52:47.403Z,3.10
2019-03-18T18:55:28.936Z,2.47
2019-03-18T18:58:10.452Z,3.08
2019-03-18T19:00:51.968Z,2.52
2019-03-18T19:03:33.091Z,2.40
2019-03-18T19:06:14.421Z,2.40
2019-03-18T19:08:55.372Z,2.60
2019-03-18T19:11:37.036Z,2.60
2019-03-18T19:14:18.514Z,3.10
2019-03-18T19:17:00.481Z,3.08
2019-03-18T19:19:41.856Z,4.08
2019-03-18T19:22:23.748Z,2.62
2019-03-18T19:25:05.008Z,2.95
2019-03-18T19:27:46.491Z,2.90
2019-03-18T19:30:28.290Z,3.15
2019-03-18T19:33:09.747Z,2.87
2019-03-18T19:35:51.141Z,3.58
2019-03-18T19:38:32.080Z,3.98
2019-03-18T19:41:13.124Z,2.70
2019-03-18T19:43:54.343Z,3.05
2019-03-18T19:46:35.869Z,2.62
2019-03-18T19:49:16.761Z,3.15
2019-03-18T19:51:57.917Z,4.17
2019-03-18T19:54:39.519Z,3.92
2019-03-18T19:57:20.760Z,3.52
2019-03-18T20:00:02.334Z,4.25
2019-03-18T20:02:43.493Z,3.60
2019-03-18T20:05:25.344Z,4.12
2019-03-18T20:11:14.960Z,4.22
2019-03-18T20:13:56.432Z,2.90
2019-03-18T20:16:37.684Z,3.10
2019-03-18T20:19:19.096Z,3.37
2019-03-18T20:21:59.899Z,3.58
2019-03-18T20:24:41.582Z,2.90
2019-03-18T20:27:22.853Z,3.10
2019-03-18T20:30:04.585Z,3.50
2019-03-18T20:32:45.957Z,3.87
2019-03-18T20:35:27.091Z,4.10
2019-03-18T20:38:08.140Z,3.10
2019-03-18T20:40:49.679Z,3.47
2019-03-18T20:43:31.017Z,3.52
2019-03-18T20:46:10.742Z,2.55
2019-03-18T20:49:11.067Z,3.00
2019-03-18T20:51:50.263Z,3.00
2019-03-18T20:54:41.458Z,3.10
2019-03-18T21:00:25.456Z,3.10
2019-03-18T21:03:26.234Z,3.02
2019-03-18T21:06:04.791Z,3.50
2019-03-18T21:08:53.409Z,3.30
2019-03-18T21:17:39.648Z,4.70
2019-03-18T21:20:20.975Z,3.50
2019-03-18T21:23:02.460Z,2.90
2019-03-18T21:25:43.731Z,2.92
2019-03-18T21:28:23.741Z,3.52
2019-03-18T21:34:32.565Z,2.67
2019-03-18T21:43:18.744Z,3.70
2019-03-18T21:46:21.819Z,2.90
2019-03-18T21:48:58.277Z,4.17
2019-03-18T21:51:47.055Z,4.50
2019-03-18T21:57:45.187Z,3.08
2019-03-18T22:00:36.065Z,3.83
2019-03-18T22:03:12.562Z,3.25
2019-03-18T22:09:00.000Z,3.75
2019-03-18T22:11:48.807Z,2.45
2019-03-18T22:17:29.728Z,3.58
2019-03-18T22:20:11.615Z,3.20
2019-03-18T22:22:52.699Z,3.12
2019-03-18T22:25:34.800Z,3.50
2019-03-18T22:28:16.748Z,3.58
2019-03-18T22:30:58.488Z,4.05
2019-03-18T22:33:40.625Z,3.25
2019-03-18T22:36:22.586Z,3.58
2019-03-18T22:39:04.293Z,3.95
2019-03-18T22:41:45.194Z,4.17
2019-03-18T22:44:26.627Z,3.12
2019-03-18T22:47:08.117Z,3.87
2019-03-18T22:49:51.169Z,3.42
2019-03-18T22:52:32.330Z,3.70
2019-03-18T22:55:13.720Z,5.00
2019-03-18T22:57:55.418Z,3.58
2019-03-18T23:00:55.859Z,3.67
2019-03-18T23:03:37.348Z,4.25
2019-03-18T23:06:18.966Z,3.67
2019-03-18T23:09:00.669Z,4.03
2019-03-18T23:11:42.363Z,3.65
2019-03-18T23:14:24.040Z,3.80
2019-03-18T23:17:05.411Z,3.55
2019-03-18T23:19:46.526Z,3.95
2019-03-18T23:22:28.320Z,3.55
2019-03-18T23:25:09.529Z,3.10
2019-03-18T23:27:51.303Z,3.52
2019-03-18T23:30:32.753Z,4.17
2019-03-18T23:33:14.824Z,5.03
2019-03-18T23:35:56.163Z,3.22
2019-03-18T23:38:37.543Z,3.20
2019-03-18T23:41:17.162Z,4.05
2019-03-18T23:44:17.508Z,3.85
2019-03-18T23:46:56.040Z,4.60
2019-03-18T23:55:39.916Z,3.50
2019-03-18T23:58:21.331Z,5.72
